createdAt,value
2024-03-03T00:02:19.464Z,11.80
2024-03-03T00:05:22.275Z,12.02
2024-03-03T00:08:25.595Z,16.85
2024-03-03T00:11:29.021Z,12.30
2024-03-03T00:14:33.174Z,12.25
2024-03-03T00:17:35.978Z,11.35
2024-03-03T00:20:38.852Z,12.90
2024-03-03T00:23:41.704Z,11.98
2024-03-03T00:26:44.672Z,14.60
2024-03-03T00:29:48.841Z,12.65
2024-03-03T00:32:51.624Z,11.70
2024-03-03T00:35:54.430Z,12.23
2024-03-03T00:38:57.237Z,12.52
2024-03-03T00:42:00.043Z,13.88
2024-03-03T00:45:04.588Z,13.73
2024-03-03T00:48:08.362Z,11.60
2024-03-03T00:51:11.204Z,12.35
2024-03-03T00:54:14.019Z,14.50
2024-03-03T00:57:16.980Z,15.93
2024-03-03T01:00:21.391Z,13.18
2024-03-03T01:03:24.191Z,11.95
2024-03-03T01:06:26.974Z,15.35
2024-03-03T01:09:30.341Z,14.20
2024-03-03T01:12:33.194Z,15.70
2024-03-03T01:15:37.454Z,14.52
2024-03-03T01:18:40.356Z,14.07
2024-03-03T01:21:43.418Z,13.73
2024-03-03T01:24:46.205Z,15.30
2024-03-03T01:27:49.028Z,13.65
2024-03-03T01:30:53.166Z,15.00
2024-03-03T01:33:56.050Z,13.50
2024-03-03T01:36:58.902Z,18.23
2024-03-03T01:40:01.814Z,12.27
2024-03-03T01:43:05.584Z,11.85
2024-03-03T01:46:11.450Z,14.88
2024-03-03T01:49:16.478Z,13.15
2024-03-03T01:52:19.667Z,13.30
2024-03-03T01:55:24.596Z,13.93
2024-03-03T01:58:29.266Z,11.15
2024-03-03T02:01:33.950Z,12.90
2024-03-03T02:04:37.899Z,11.18
2024-03-03T02:07:41.111Z,14.27
2024-03-03T02:10:44.352Z,12.38
2024-03-03T02:13:47.237Z,12.80
2024-03-03T02:16:52.305Z,14.20
2024-03-03T02:19:55.486Z,15.25
2024-03-03T02:22:59.622Z,12.75
2024-03-03T02:26:02.625Z,12.40
2024-03-03T02:29:06.404Z,14.48
2024-03-03T02:32:09.215Z,13.10
2024-03-03T02:35:11.999Z,13.10
2024-03-03T02:38:16.163Z,14.27
2024-03-03T02:41:19.180Z,12.98
2024-03-03T02:44:23.678Z,13.27
2024-03-03T02:47:26.494Z,12.35
2024-03-03T02:50:29.259Z,14.05
2024-03-03T02:53:33.387Z,11.82
2024-03-03T02:56:36.149Z,13.25
2024-03-03T02:59:38.981Z,12.50
2024-03-03T03:02:41.852Z,13.13
2024-03-03T03:05:44.619Z,14.20
2024-03-03T03:08:48.747Z,11.98
2024-03-03T03:11:51.702Z,13.10
2024-03-03T03:14:54.640Z,11.60
2024-03-03T03:17:57.459Z,12.82
2024-03-03T03:21:00.600Z,14.23
2024-03-03T03:24:05.158Z,12.05
2024-03-03T03:27:07.949Z,13.45
2024-03-03T03:30:12.219Z,12.32
2024-03-03T03:33:16.245Z,12.75
2024-03-03T03:36:20.081Z,10.05
2024-03-03T03:39:24.702Z,11.30
2024-03-03T03:42:27.515Z,12.30
2024-03-03T03:45:30.294Z,10.98
2024-03-03T03:48:33.126Z,12.95
2024-03-03T03:51:35.975Z,13.98
2024-03-03T03:54:40.177Z,11.88
2024-03-03T03:57:42.986Z,12.70
2024-03-03T04:00:45.933Z,14.43
2024-03-03T04:03:49.085Z,14.10
2024-03-03T04:06:51.967Z,11.18
2024-03-03T04:09:56.141Z,12.02
2024-03-03T04:12:58.917Z,13.13
2024-03-03T04:16:01.759Z,12.05
2024-03-03T04:19:04.734Z,12.60
2024-03-03T04:22:07.674Z,12.40
2024-03-03T04:25:12.125Z,12.15
2024-03-03T04:28:15.091Z,12.23
2024-03-03T04:31:17.958Z,12.00
2024-03-03T04:34:20.822Z,13.63
2024-03-03T04:37:23.735Z,11.10
2024-03-03T04:40:27.961Z,14.07
2024-03-03T04:43:30.794Z,12.02
2024-03-03T04:46:33.615Z,12.05
2024-03-03T04:49:36.407Z,12.32
2024-03-03T04:52:39.848Z,13.90
2024-03-03T04:55:44.057Z,13.35
2024-03-03T04:58:46.892Z,14.05
2024-03-03T05:01:50.004Z,11.02
2024-03-03T05:04:52.915Z,14.45
2024-03-03T05:07:55.716Z,11.45
2024-03-03T05:10:59.957Z,12.13
2024-03-03T05:14:02.890Z,12.07
2024-03-03T05:17:06.113Z,13.95
2024-03-03T05:20:10.109Z,12.63
2024-03-03T05:23:12.912Z,13.20
2024-03-03T05:26:18.678Z,12.95
2024-03-03T05:29:21.505Z,13.95
2024-03-03T05:32:24.510Z,14.95
2024-03-03T05:35:27.337Z,12.70
2024-03-03T05:38:30.110Z,13.93
2024-03-03T05:41:34.261Z,12.98
2024-03-03T05:44:37.049Z,12.57
2024-03-03T05:47:40.049Z,12.68
2024-03-03T05:50:43.052Z,12.48
2024-03-03T05:53:46.542Z,12.52
2024-03-03T05:56:51.025Z,14.18
2024-03-03T05:59:53.923Z,13.65
2024-03-03T06:02:56.696Z,11.68
2024-03-03T06:05:59.463Z,12.70
2024-03-03T06:09:02.245Z,11.35
2024-03-03T06:12:06.928Z,11.73
2024-03-03T06:15:10.463Z,13.75
2024-03-03T06:18:13.340Z,12.23
2024-03-03T06:21:16.114Z,15.80
2024-03-03T06:24:19.090Z,13.40
2024-03-03T06:27:23.262Z,13.27
2024-03-03T06:30:26.395Z,13.93
2024-03-03T06:33:29.253Z,13.18
2024-03-03T06:36:32.144Z,13.32
2024-03-03T06:39:34.943Z,13.30
2024-03-03T06:42:40.641Z,12.90
2024-03-03T06:45:44.613Z,14.23
2024-03-03T06:48:47.450Z,13.00
2024-03-03T06:51:50.335Z,13.32
2024-03-03T06:54:53.148Z,13.32
2024-03-03T06:57:57.626Z,12.85
2024-03-03T07:01:00.660Z,14.77
2024-03-03T07:04:20.236Z,12.90
2024-03-03T07:07:23.800Z,13.23
2024-03-03T07:10:26.889Z,14.10
2024-03-03T07:13:31.013Z,13.15
2024-03-03T07:16:33.941Z,13.80
2024-03-03T07:19:36.924Z,13.25
2024-03-03T07:22:39.766Z,13.07
2024-03-03T07:25:42.595Z,12.48
2024-03-03T07:28:46.733Z,13.52
2024-03-03T07:31:49.495Z,13.20
2024-03-03T07:34:52.420Z,12.15
2024-03-03T07:37:55.256Z,12.07
2024-03-03T07:40:58.410Z,12.55
2024-03-03T07:44:04.924Z,13.13
2024-03-03T07:47:07.987Z,13.43
2024-03-03T07:50:11.126Z,12.57
2024-03-03T07:53:14.063Z,12.45
2024-03-03T07:56:17.021Z,14.82
2024-03-03T07:59:21.148Z,13.52
2024-03-03T08:02:23.905Z,11.27
2024-03-03T08:05:26.753Z,13.65
2024-03-03T08:08:29.559Z,12.95
2024-03-03T08:11:33.478Z,13.55
2024-03-03T08:14:37.652Z,11.32
2024-03-03T08:17:41.182Z,13.02
2024-03-03T08:20:44.043Z,13.13
2024-03-03T08:23:46.834Z,11.48
2024-03-03T08:26:50.172Z,12.98
2024-03-03T08:29:54.352Z,12.63
2024-03-03T08:32:57.255Z,12.38
2024-03-03T08:36:00.549Z,14.05
2024-03-03T08:39:04.218Z,12.93
2024-03-03T08:42:07.070Z,14.20
2024-03-03T08:45:14.222Z,12.73
2024-03-03T08:48:16.999Z,14.00
2024-03-03T08:51:19.763Z,13.88
2024-03-03T08:54:22.565Z,12.05
2024-03-03T08:57:25.759Z,13.00
2024-03-03T09:00:29.870Z,11.40
2024-03-03T09:03:32.852Z,11.52
2024-03-03T09:06:35.642Z,11.75
2024-03-03T09:09:41.665Z,13.25
2024-03-03T09:12:46.319Z,11.40
2024-03-03T09:15:50.628Z,12.75
2024-03-03T09:18:55.187Z,13.43
2024-03-03T09:21:58.176Z,12.95
2024-03-03T09:25:01.056Z,14.07
2024-03-03T09:28:04.073Z,12.55
2024-03-03T09:31:08.378Z,12.38
2024-03-03T09:34:11.220Z,12.60
2024-03-03T09:37:14.384Z,12.52
2024-03-03T09:40:17.746Z,13.18
2024-03-03T09:43:24.819Z,12.85
2024-03-03T09:46:31.319Z,11.65
2024-03-03T09:49:35.263Z,12.27
2024-03-03T09:52:39.702Z,14.32
2024-03-03T09:55:43.315Z,14.10
2024-03-03T09:58:46.201Z,13.32
2024-03-03T10:01:52.837Z,14.20
2024-03-03T10:04:59.254Z,13.80
2024-03-03T10:08:03.066Z,13.52
2024-03-03T10:11:10.619Z,13.55
2024-03-03T10:14:14.199Z,11.98
2024-03-03T10:17:18.534Z,13.98
2024-03-03T10:20:21.350Z,11.48
2024-03-03T10:23:25.462Z,16.15
2024-03-03T10:26:36.709Z,12.10
2024-03-03T10:29:41.697Z,12.43
2024-03-03T10:32:47.462Z,13.77
2024-03-03T10:36:06.810Z,13.00
2024-03-03T10:39:10.495Z,13.18
2024-03-03T10:42:13.328Z,15.63
2024-03-03T10:45:16.476Z,21.33
2024-03-03T10:48:20.689Z,20.30
2024-03-03T10:51:24.419Z,23.10
2024-03-03T10:54:27.899Z,36.03
2024-03-03T10:57:31.395Z,34.00
2024-03-03T11:00:37.147Z,36.50
2024-03-03T11:03:44.238Z,31.60
2024-03-03T11:06:47.092Z,33.85
2024-03-03T11:09:51.155Z,32.00
2024-03-03T11:12:57.271Z,29.48
2024-03-03T11:16:04.593Z,30.67
2024-03-03T11:19:13.358Z,31.98
2024-03-03T11:22:23.133Z,31.10
2024-03-03T11:25:29.432Z,26.38
2024-03-03T11:28:35.373Z,25.77
2024-03-03T11:31:39.929Z,24.30
2024-03-03T11:34:46.260Z,25.35
2024-03-03T11:37:49.902Z,27.65
2024-03-03T11:40:53.483Z,28.85
2024-03-03T11:43:56.297Z,25.02
2024-03-03T11:46:59.356Z,24.13
2024-03-03T11:50:19.108Z,23.48
2024-03-03T11:53:23.335Z,23.02
2024-03-03T11:56:29.308Z,23.95
2024-03-03T11:59:33.925Z,23.83
2024-03-03T12:02:39.511Z,24.13
2024-03-03T12:05:43.837Z,23.80
2024-03-03T12:08:54.959Z,24.60
2024-03-03T12:11:58.059Z,20.85
2024-03-03T12:15:01.747Z,24.05
2024-03-03T12:18:11.116Z,22.58
2024-03-03T12:21:16.282Z,20.67
2024-03-03T12:24:19.055Z,25.73
2024-03-03T12:27:22.287Z,21.60
2024-03-03T12:30:36.651Z,21.85
2024-03-03T12:33:41.471Z,25.08
2024-03-03T12:36:46.381Z,25.20
2024-03-03T12:39:49.282Z,30.92
2024-03-03T12:42:52.705Z,25.38
2024-03-03T12:45:55.996Z,23.13
2024-03-03T12:48:58.857Z,25.25
2024-03-03T12:52:03.425Z,27.10
2024-03-03T12:55:07.854Z,22.83
2024-03-03T12:58:10.770Z,26.63
2024-03-03T13:01:14.416Z,28.23
2024-03-03T13:04:17.296Z,20.83
2024-03-03T13:07:22.595Z,21.48
2024-03-03T13:10:26.727Z,21.55
2024-03-03T13:13:29.610Z,19.02
2024-03-03T13:16:34.305Z,24.17
2024-03-03T13:19:45.007Z,23.35
2024-03-03T13:22:49.469Z,25.05
2024-03-03T13:25:53.421Z,20.02
2024-03-03T13:28:56.583Z,19.40
2024-03-03T13:31:59.369Z,22.58
2024-03-03T13:35:02.162Z,25.42
2024-03-03T13:38:06.631Z,23.02
2024-03-03T13:41:09.453Z,20.60
2024-03-03T13:44:12.502Z,20.77
2024-03-03T13:47:15.814Z,22.77
2024-03-03T13:50:18.711Z,19.75
2024-03-03T13:53:23.748Z,21.17
2024-03-03T13:56:26.958Z,27.65
2024-03-03T13:59:29.960Z,23.98
2024-03-03T14:02:32.811Z,19.42
2024-03-03T14:05:35.776Z,22.23
2024-03-03T14:08:40.450Z,23.80
2024-03-03T14:11:43.701Z,22.88
2024-03-03T14:14:46.598Z,20.50
2024-03-03T14:17:50.284Z,24.58
2024-03-03T14:20:53.202Z,21.80
2024-03-03T14:23:57.724Z,24.25
2024-03-03T14:27:00.527Z,24.15
2024-03-03T14:30:03.710Z,25.10
2024-03-03T14:33:07.121Z,26.33
2024-03-03T14:36:10.581Z,20.58
2024-03-03T14:39:14.716Z,23.20
2024-03-03T14:42:19.116Z,17.63
2024-03-03T14:45:22.230Z,23.30
2024-03-03T14:48:25.154Z,22.70
2024-03-03T14:51:28.483Z,18.13
2024-03-03T14:54:32.647Z,20.15
2024-03-03T14:57:36.489Z,18.33
2024-03-03T15:00:40.239Z,19.70
2024-03-03T15:03:42.976Z,21.52
2024-03-03T15:06:46.158Z,19.40
2024-03-03T15:09:50.387Z,18.25
2024-03-03T15:12:53.559Z,17.00
2024-03-03T15:15:56.413Z,17.70
2024-03-03T15:18:59.309Z,18.60
2024-03-03T15:22:02.098Z,18.25
2024-03-03T15:25:08.165Z,17.73
2024-03-03T15:28:11.639Z,18.42
2024-03-03T15:31:14.463Z,16.88
2024-03-03T15:34:17.252Z,18.70
2024-03-03T15:37:21.096Z,18.95
2024-03-03T15:40:26.192Z,14.48
2024-03-03T15:43:29.024Z,16.52
2024-03-03T15:46:31.853Z,17.42
2024-03-03T15:49:35.181Z,18.92
2024-03-03T15:52:38.699Z,16.38
2024-03-03T15:55:42.933Z,15.27
2024-03-03T15:58:45.880Z,15.68
2024-03-03T16:01:50.462Z,15.65
2024-03-03T16:04:53.321Z,16.67
2024-03-03T16:07:56.302Z,19.10
2024-03-03T16:11:00.499Z,16.95
2024-03-03T16:14:03.536Z,18.83
2024-03-03T16:17:06.950Z,15.35
2024-03-03T16:20:10.629Z,16.38
2024-03-03T16:23:14.955Z,13.95
2024-03-03T16:26:19.451Z,16.88
2024-03-03T16:29:22.589Z,14.75
2024-03-03T16:32:25.601Z,15.35
2024-03-03T16:35:28.380Z,15.90
2024-03-03T16:38:31.163Z,15.40
2024-03-03T16:41:35.761Z,14.00
2024-03-03T16:44:40.628Z,14.30
2024-03-03T16:47:43.425Z,15.38
2024-03-03T16:50:46.229Z,14.98
2024-03-03T16:53:48.993Z,13.85
2024-03-03T16:56:53.611Z,14.25
2024-03-03T16:59:56.434Z,13.10
2024-03-03T17:02:59.326Z,14.10
2024-03-03T17:06:02.503Z,16.70
2024-03-03T17:09:05.820Z,16.83
2024-03-03T17:12:10.202Z,12.73
2024-03-03T17:15:13.086Z,14.52
2024-03-03T17:18:16.042Z,13.18
2024-03-03T17:21:18.822Z,14.18
2024-03-03T17:24:21.627Z,12.88
2024-03-03T17:27:25.758Z,15.98
2024-03-03T17:30:28.565Z,14.07
2024-03-03T17:33:31.405Z,14.85
2024-03-03T17:36:34.892Z,14.50
2024-03-03T17:39:37.753Z,14.55
2024-03-03T17:42:42.075Z,16.13
2024-03-03T17:45:44.982Z,12.40
2024-03-03T17:48:47.858Z,15.48
2024-03-03T17:51:50.779Z,14.57
2024-03-03T17:54:53.638Z,12.55
2024-03-03T17:57:57.806Z,12.65
2024-03-03T18:01:01.559Z,12.55
2024-03-03T18:04:05.164Z,13.10
2024-03-03T18:07:08.432Z,11.23
2024-03-03T18:10:12.034Z,13.18
2024-03-03T18:13:16.600Z,14.05
2024-03-03T18:16:19.858Z,12.93
2024-03-03T18:19:22.711Z,13.05
2024-03-03T18:22:26.077Z,14.10
2024-03-03T18:25:29.721Z,12.13
2024-03-03T18:28:34.090Z,11.23
2024-03-03T18:31:36.994Z,11.98
2024-03-03T18:34:39.842Z,14.23
2024-03-03T18:37:42.915Z,15.52
2024-03-03T18:40:45.931Z,15.95
2024-03-03T18:43:50.222Z,11.88
2024-03-03T18:46:53.220Z,11.77
2024-03-03T18:49:58.480Z,13.13
2024-03-03T18:53:01.273Z,16.92
2024-03-03T18:56:05.273Z,14.13
2024-03-03T18:59:10.299Z,13.38
2024-03-03T19:02:13.565Z,14.70
2024-03-03T19:05:16.392Z,11.68
2024-03-03T19:08:19.227Z,15.50
2024-03-03T19:11:22.443Z,14.25
2024-03-03T19:14:26.784Z,15.10
2024-03-03T19:17:29.700Z,19.42
2024-03-03T19:20:32.785Z,11.48
2024-03-03T19:23:35.630Z,13.07
2024-03-03T19:26:38.648Z,12.50
2024-03-03T19:29:43.393Z,13.23
2024-03-03T19:32:47.215Z,13.05
2024-03-03T19:35:50.048Z,14.13
2024-03-03T19:38:52.853Z,15.95
2024-03-03T19:41:56.129Z,14.75
2024-03-03T19:45:00.354Z,14.40
2024-03-03T19:48:03.562Z,14.50
2024-03-03T19:51:06.814Z,14.30
2024-03-03T19:54:09.642Z,14.05
2024-03-03T19:57:13.750Z,13.35
2024-03-03T20:00:18.559Z,13.52
2024-03-03T20:03:22.161Z,11.07
2024-03-03T20:06:25.377Z,11.15
2024-03-03T20:09:28.169Z,13.45
2024-03-03T20:12:31.141Z,13.85
2024-03-03T20:15:35.302Z,14.25
2024-03-03T20:18:40.850Z,10.15
2024-03-03T20:21:44.142Z,17.88
2024-03-03T20:24:48.006Z,14.40
2024-03-03T20:27:50.856Z,14.52
2024-03-03T20:30:55.057Z,14.95
2024-03-03T20:33:58.471Z,12.93
2024-03-03T20:37:01.329Z,10.68
2024-03-03T20:40:06.548Z,12.55
2024-03-03T20:43:09.510Z,12.52
2024-03-03T20:46:13.672Z,13.68
2024-03-03T20:49:18.765Z,12.90
2024-03-03T20:52:21.703Z,11.50
2024-03-03T20:55:24.565Z,10.98
2024-03-03T20:58:27.462Z,14.63
2024-03-03T21:01:33.315Z,11.77
2024-03-03T21:04:37.826Z,11.80
2024-03-03T21:07:40.874Z,12.55
2024-03-03T21:10:43.860Z,10.52
2024-03-03T21:13:46.779Z,13.35
2024-03-03T21:16:51.041Z,12.55
2024-03-03T21:19:53.922Z,13.05
2024-03-03T21:22:56.728Z,10.65
2024-03-03T21:26:01.415Z,11.07
2024-03-03T21:29:05.007Z,11.77
2024-03-03T21:32:09.318Z,12.55
2024-03-03T21:35:12.119Z,11.88
2024-03-03T21:38:15.127Z,11.25
2024-03-03T21:41:18.087Z,10.35
2024-03-03T21:44:20.891Z,11.13
2024-03-03T21:47:26.181Z,11.68
2024-03-03T21:50:28.999Z,13.15
2024-03-03T21:53:31.974Z,11.32
2024-03-03T21:56:34.742Z,12.68
2024-03-03T21:59:37.591Z,14.10
2024-03-03T22:02:41.939Z,12.30
2024-03-03T22:05:44.801Z,11.73
2024-03-03T22:08:47.902Z,12.00
2024-03-03T22:11:51.621Z,10.25
2024-03-03T22:14:54.478Z,11.18
2024-03-03T22:17:58.626Z,15.15
2024-03-03T22:21:01.400Z,11.93
2024-03-03T22:24:04.658Z,11.77
2024-03-03T22:27:08.008Z,14.45
2024-03-03T22:30:11.877Z,13.25
2024-03-03T22:33:16.126Z,11.07
2024-03-03T22:36:18.982Z,14.27
2024-03-03T22:39:23.159Z,13.27
2024-03-03T22:42:26.043Z,14.30
2024-03-03T22:45:28.835Z,11.15
2024-03-03T22:48:32.951Z,13.07
2024-03-03T22:51:35.777Z,12.63
2024-03-03T22:54:38.602Z,10.30
2024-03-03T22:57:41.481Z,12.40
2024-03-03T23:00:44.381Z,12.38
2024-03-03T23:03:48.565Z,14.13
2024-03-03T23:06:51.433Z,10.93
2024-03-03T23:09:54.282Z,10.18
2024-03-03T23:12:57.147Z,9.38
2024-03-03T23:15:59.968Z,11.43
2024-03-03T23:19:05.247Z,12.10
2024-03-03T23:22:08.057Z,12.73
2024-03-03T23:25:11.090Z,13.02
2024-03-03T23:28:13.901Z,10.70
2024-03-03T23:31:16.934Z,12.50
2024-03-03T23:34:21.185Z,12.77
2024-03-03T23:37:24.072Z,11.93
2024-03-03T23:40:27.603Z,12.45
2024-03-03T23:43:30.618Z,11.93
2024-03-03T23:46:34.727Z,10.35
2024-03-03T23:49:39.052Z,10.50
2024-03-03T23:52:42.766Z,10.50
2024-03-03T23:55:45.771Z,12.15
2024-03-03T23:58:48.746Z,10.60
